Time,TemperatureF,DewpointF,PressureIn,WindDirection,WindDirectionDegrees,WindSpeedMPH,WindSpeedGustMPH,Humidity,HourlyPrecipIn,Conditions,Clouds,dailyrainin,SoftwareType,DateUTC
2017-07-24 00:02:00,73.2,72.6,29.63,West,278,0.0,2.0,98,0.00,,SKC,0.00,VWS V14.01,2017-07-24 04:02:00,
2017-07-24 00:07:00,73.2,72.6,29.62,West,278,0.0,2.0,98,0.00,,SKC,0.00,VWS V14.01,2017-07-24 04:07:00,
2017-07-24 00:12:00,73.2,72.6,29.62,West,278,0.0,2.0,98,0.01,,SKC,0.01,VWS V14.01,2017-07-24 04:12:00,
2017-07-24 00:17:00,73.1,72.5,29.62,West,278,0.0,2.0,98,0.01,,SKC,0.01,VWS V14.01,2017-07-24 04:17:00,
2017-07-24 00:22:00,73.1,72.5,29.62,West,278,0.0,2.0,98,0.01,,SKC,0.01,VWS V14.01,2017-07-24 04:22:00,
2017-07-24 00:27:00,73.1,72.5,29.61,West,278,0.0,0.0,98,0.01,,SKC,0.01,VWS V14.01,2017-07-24 04:27:00,
2017-07-24 00:32:00,73.0,72.4,29.60,West,278,0.0,0.0,98,0.01,,SKC,0.01,VWS V14.01,2017-07-24 04:32:00,
2017-07-24 00:37:00,72.9,72.3,29.60,West,278,0.0,0.0,98,0.01,,SKC,0.01,VWS V14.01,2017-07-24 04:37:00,
2017-07-24 00:42:00,72.8,72.2,29.60,West,278,0.0,0.0,98,0.01,,SKC,0.01,VWS V14.01,2017-07-24 04:42:00,
2017-07-24 00:47:00,72.6,72.0,29.60,West,278,0.0,0.0,98,0.01,,SKC,0.01,VWS V14.01,2017-07-24 04:47:00,
2017-07-24 00:52:00,72.6,72.0,29.59,West,278,0.0,0.0,98,0.01,,SKC,0.01,VWS V14.01,2017-07-24 04:52:00,
2017-07-24 00:57:00,72.5,72.2,29.59,West,278,0.0,0.0,99,0.01,,SKC,0.01,VWS V14.01,2017-07-24 04:57:00,
2017-07-24 01:02:00,72.3,71.7,29.59,West,278,0.0,0.0,98,0.01,,SKC,0.01,VWS V14.01,2017-07-24 05:02:00,
2017-07-24 01:07:00,72.2,71.9,29.59,West,278,0.0,0.0,99,0.01,,SKC,0.01,VWS V14.01,2017-07-24 05:07:00,
2017-07-24 01:12:00,72.1,71.8,29.59,West,278,0.0,0.0,99,0.01,,SKC,0.01,VWS V14.01,2017-07-24 05:12:00,
2017-07-24 01:17:00,72.1,71.8,29.59,West,278,0.0,0.0,99,0.01,,SKC,0.01,VWS V14.01,2017-07-24 05:17:00,
2017-07-24 01:22:00,72.1,71.8,29.59,West,271,0.0,0.0,99,0.01,,SKC,0.01,VWS V14.01,2017-07-24 05:22:00,
2017-07-24 01:27:00,72.0,71.7,29.59,West,271,0.0,0.0,99,0.00,,SKC,0.01,VWS V14.01,2017-07-24 05:27:00,
2017-07-24 01:32:00,72.0,71.7,29.59,West,271,0.0,0.0,99,0.00,,SKC,0.01,VWS V14.01,2017-07-24 05:32:00,
2017-07-24 01:37:00,72.0,71.7,29.59,West,271,0.0,0.0,99,0.00,,SKC,0.01,VWS V14.01,2017-07-24 05:37:00,
2017-07-24 01:42:00,72.0,71.7,29.59,West,271,0.0,0.0,99,0.00,,SKC,0.01,VWS V14.01,2017-07-24 05:42:00,
2017-07-24 01:47:00,72.0,71.7,29.59,West,271,0.0,0.0,99,0.00,,SKC,0.01,VWS V14.01,2017-07-24 05:47:00,
2017-07-24 01:52:00,72.1,71.8,29.59,ESE,114,0.0,0.0,99,0.00,,SKC,0.01,VWS V14.01,2017-07-24 05:52:00,
2017-07-24 01:57:00,72.1,71.8,29.60,ESE,116,0.0,0.0,99,0.00,,SKC,0.01,VWS V14.01,2017-07-24 05:57:00,
2017-07-24 01:58:00,72.1,71.8,29.60,ESE,115,0.0,0.0,99,0.00,,SKC,0.01,VWS V14.01,2017-07-24 05:58:00,
2017-07-24 02:03:00,72.2,71.9,29.60,ESE,115,0.0,0.0,99,0.00,,SKC,0.01,VWS V14.01,2017-07-24 06:03:00,
2017-07-24 02:08:00,72.3,72.0,29.60,ESE,115,0.0,0.0,99,0.00,,SKC,0.01,VWS V14.01,2017-07-24 06:08:00,
2017-07-24 02:13:00,72.4,72.1,29.61,ESE,115,0.0,0.0,99,0.00,,SKC,0.01,VWS V14.01,2017-07-24 06:13:00,
2017-07-24 02:17:00,72.5,72.2,29.60,ESE,115,0.0,0.0,99,0.00,,SKC,0.01,VWS V14.01,2017-07-24 06:17:00,
2017-07-24 02:22:00,72.6,72.3,29.61,ESE,116,0.0,0.0,99,0.00,,SKC,0.01,VWS V14.01,2017-07-24 06:22:00,
2017-07-24 02:27:00,72.6,72.3,29.60,ESE,116,0.0,0.0,99,0.00,,SKC,0.01,VWS V14.01,2017-07-24 06:27:00,
2017-07-24 02:32:00,72.6,72.3,29.60,ESE,115,0.0,0.0,99,0.00,,SKC,0.01,VWS V14.01,2017-07-24 06:32:00,
2017-07-24 02:37:00,72.6,72.3,29.61,ESE,115,0.0,0.0,99,0.00,,SKC,0.01,VWS V14.01,2017-07-24 06:37:00,
2017-07-24 02:42:00,72.7,72.4,29.61,ESE,115,0.0,0.0,99,0.00,,SKC,0.01,VWS V14.01,2017-07-24 06:42:00,
2017-07-24 02:47:00,72.7,72.4,29.60,ESE,115,0.0,0.0,99,0.00,,SKC,0.01,VWS V14.01,2017-07-24 06:47:00,
2017-07-24 02:52:00,72.8,72.5,29.60,ESE,115,0.0,0.0,99,0.00,,SKC,0.01,VWS V14.01,2017-07-24 06:52:00,
2017-07-24 02:57:00,72.8,72.5,29.60,ESE,116,0.0,0.0,99,0.00,,SKC,0.01,VWS V14.01,2017-07-24 06:57:00,
2017-07-24 03:02:00,72.7,72.4,29.59,ESE,115,0.0,0.0,99,0.00,,SKC,0.01,VWS V14.01,2017-07-24 07:02:00,
2017-07-24 03:07:00,72.6,72.3,29.59,ESE,115,0.0,0.0,99,0.00,,SKC,0.01,VWS V14.01,2017-07-24 07:07:00,
2017-07-24 03:12:00,72.4,72.1,29.59,ESE,115,0.0,0.0,99,0.00,,SKC,0.01,VWS V14.01,2017-07-24 07:12:00,
2017-07-24 03:17:00,72.4,72.1,29.59,ESE,115,0.0,0.0,99,0.00,,SKC,0.01,VWS V14.01,2017-07-24 07:17:00,
2017-07-24 03:22:00,72.2,71.9,29.59,ESE,115,0.0,0.0,99,0.00,,SKC,0.01,VWS V14.01,2017-07-24 07:22:00,
2017-07-24 03:27:00,72.1,71.8,29.58,ESE,115,0.0,0.0,99,0.00,,SKC,0.01,VWS V14.01,2017-07-24 07:27:00,
2017-07-24 03:32:00,71.9,71.6,29.58,ESE,115,0.0,0.0,99,0.00,,SKC,0.01,VWS V14.01,2017-07-24 07:32:00,
2017-07-24 03:37:00,71.8,71.5,29.58,SE,125,0.0,0.0,99,0.00,,SKC,0.01,VWS V14.01,2017-07-24 07:37:00,
2017-07-24 03:42:00,71.9,71.6,29.58,WSW,239,0.0,0.0,99,0.00,,SKC,0.01,VWS V14.01,2017-07-24 07:42:00,
2017-07-24 03:47:00,71.6,71.3,29.58,West,260,0.0,0.0,99,0.00,,SKC,0.01,VWS V14.01,2017-07-24 07:47:00,
2017-07-24 03:52:00,71.5,71.2,29.58,West,259,0.0,0.0,99,0.00,,SKC,0.01,VWS V14.01,2017-07-24 07:52:00,
2017-07-24 03:57:00,71.3,71.0,29.58,West,259,0.0,0.0,99,0.00,,SKC,0.01,VWS V14.01,2017-07-24 07:57:00,
2017-07-24 04:02:00,71.2,70.9,29.58,WSW,258,0.0,0.0,99,0.00,,SKC,0.01,VWS V14.01,2017-07-24 08:02:00,
2017-07-24 04:07:00,71.1,70.8,29.58,West,259,0.0,0.0,99,0.00,,SKC,0.01,VWS V14.01,2017-07-24 08:07:00,
2017-07-24 04:12:00,71.1,70.8,29.58,North,350,0.0,0.0,99,0.00,,SKC,0.01,VWS V14.01,2017-07-24 08:12:00,
2017-07-24 04:17:00,71.1,70.8,29.58,North,6,0.0,0.0,99,0.00,,SKC,0.01,VWS V14.01,2017-07-24 08:17:00,
2017-07-24 04:22:00,71.1,70.8,29.58,North,6,0.0,0.0,99,0.00,,SKC,0.01,VWS V14.01,2017-07-24 08:22:00,
2017-07-24 04:27:00,71.1,70.8,29.59,North,6,0.0,0.0,99,0.00,,SKC,0.01,VWS V14.01,2017-07-24 08:27:00,
2017-07-24 04:32:00,71.2,70.9,29.59,North,6,0.0,0.0,99,0.00,,SKC,0.01,VWS V14.01,2017-07-24 08:32:00,
2017-07-24 04:37:00,71.2,71.2,29.59,SSE,150,0.0,1.0,100,0.00,,SKC,0.01,VWS V14.01,2017-07-24 08:37:00,
2017-07-24 04:42:00,71.2,71.2,29.59,SSE,151,0.0,1.0,100,0.00,,SKC,0.01,VWS V14.01,2017-07-24 08:42:00,
2017-07-24 04:47:00,71.1,71.1,29.59,SSE,150,0.0,1.0,100,0.00,,SKC,0.01,VWS V14.01,2017-07-24 08:47:00,
2017-07-24 04:52:00,71.0,70.7,29.59,WSW,240,0.0,1.0,99,0.00,,SKC,0.01,VWS V14.01,2017-07-24 08:52:00,
2017-07-24 04:57:00,70.9,70.6,29.59,WSW,243,0.0,0.0,99,0.00,,SKC,0.01,VWS V14.01,2017-07-24 08:57:00,
2017-07-24 05:02:00,71.0,71.0,29.59,West,262,0.0,1.0,100,0.00,,SKC,0.01,VWS V14.01,2017-07-24 09:02:00,
2017-07-24 05:07:00,71.1,71.1,29.59,West,266,0.0,1.0,100,0.00,,SKC,0.01,VWS V14.01,2017-07-24 09:07:00,
2017-07-24 05:12:00,71.5,71.5,29.59,West,281,1.0,2.0,100,0.00,,SKC,0.01,VWS V14.01,2017-07-24 09:12:00,
2017-07-24 05:17:00,71.5,71.5,29.58,West,281,0.0,2.0,100,0.00,,SKC,0.01,VWS V14.01,2017-07-24 09:17:00,
2017-07-24 05:22:00,71.7,71.7,29.59,WNW,283,1.0,2.0,100,0.00,,SKC,0.01,VWS V14.01,2017-07-24 09:22:00,
2017-07-24 05:27:00,71.9,71.9,29.58,WNW,285,1.0,2.0,100,0.00,,SKC,0.01,VWS V14.01,2017-07-24 09:27:00,
2017-07-24 05:32:00,72.0,72.0,29.59,NW,304,0.0,2.0,100,0.00,,SKC,0.01,VWS V14.01,2017-07-24 09:32:00,
2017-07-24 05:37:00,72.0,72.0,29.59,NW,308,3.0,3.0,100,0.00,,SKC,0.01,VWS V14.01,2017-07-24 09:37:00,
2017-07-24 05:43:00,72.2,72.2,29.59,NNW,334,0.0,3.0,100,0.00,,SKC,0.01,VWS V14.01,2017-07-24 09:43:00,
2017-07-24 05:48:00,72.2,72.2,29.59,West,278,0.0,3.0,100,0.00,,SKC,0.01,VWS V14.01,2017-07-24 09:48:00,
2017-07-24 05:53:00,72.1,72.1,29.59,NNW,333,1.0,3.0,100,0.00,,SKC,0.01,VWS V14.01,2017-07-24 09:53:00,
2017-07-24 05:58:00,72.0,72.0,29.59,West,281,1.0,1.0,100,0.00,,SKC,0.01,VWS V14.01,2017-07-24 09:58:00,
2017-07-24 06:03:00,72.0,71.7,29.60,West,281,0.0,1.0,99,0.00,,SKC,0.01,VWS V14.01,2017-07-24 10:03:00,
2017-07-24 06:08:00,72.0,71.7,29.60,West,274,0.0,1.0,99,0.00,,SKC,0.01,VWS V14.01,2017-07-24 10:08:00,
2017-07-24 06:13:00,72.0,71.1,29.60,West,278,1.0,2.0,97,0.00,,SKC,0.01,VWS V14.01,2017-07-24 10:13:00,
2017-07-24 06:17:00,72.0,70.8,29.60,West,277,0.0,2.0,96,0.00,,SKC,0.01,VWS V14.01,2017-07-24 10:17:00,
2017-07-24 06:22:00,71.9,70.7,29.60,West,276,0.0,2.0,96,0.00,,SKC,0.01,VWS V14.01,2017-07-24 10:22:00,
2017-07-24 06:27:00,71.8,70.3,29.60,West,276,0.0,0.0,95,0.00,,SKC,0.01,VWS V14.01,2017-07-24 10:27:00,
2017-07-24 06:32:00,71.6,70.4,29.60,West,276,0.0,0.0,96,0.00,,SKC,0.01,VWS V14.01,2017-07-24 10:32:00,
2017-07-24 06:37:00,71.5,70.3,29.61,West,276,0.0,0.0,96,0.00,,SKC,0.01,VWS V14.01,2017-07-24 10:37:00,
2017-07-24 06:42:00,71.5,70.3,29.61,West,276,0.0,0.0,96,0.00,,SKC,0.01,VWS V14.01,2017-07-24 10:42:00,
2017-07-24 06:47:00,71.4,70.2,29.61,West,276,0.0,0.0,96,0.00,,SKC,0.01,VWS V14.01,2017-07-24 10:47:00,
2017-07-24 06:52:00,71.2,70.0,29.61,West,274,0.0,0.0,96,0.00,,SKC,0.01,VWS V14.01,2017-07-24 10:52:00,
2017-07-24 06:57:00,71.1,70.2,29.62,West,274,0.0,0.0,97,0.00,,SKC,0.01,VWS V14.01,2017-07-24 10:57:00,
2017-07-24 07:02:00,70.9,70.0,29.62,West,274,0.0,0.0,97,0.00,,SKC,0.01,VWS V14.01,2017-07-24 11:02:00,
2017-07-24 07:07:00,70.9,70.3,29.62,WSW,257,0.0,1.0,98,0.00,,SKC,0.01,VWS V14.01,2017-07-24 11:07:00,
2017-07-24 07:12:00,71.2,70.6,29.63,West,259,0.0,2.0,98,0.00,,SKC,0.01,VWS V14.01,2017-07-24 11:12:00,
2017-07-24 07:17:00,71.6,71.0,29.63,West,264,1.0,2.0,98,0.00,,SKC,0.01,VWS V14.01,2017-07-24 11:17:00,
2017-07-24 07:22:00,72.1,71.2,29.63,West,276,1.0,2.0,97,0.00,,SKC,0.01,VWS V14.01,2017-07-24 11:22:00,
2017-07-24 07:27:00,72.8,71.3,29.64,West,274,1.0,2.0,95,0.00,,SKC,0.01,VWS V14.01,2017-07-24 11:27:00,
2017-07-24 07:32:00,73.4,71.6,29.64,West,276,0.0,2.0,94,0.00,,SKC,0.01,VWS V14.01,2017-07-24 11:32:00,
2017-07-24 07:37:00,73.8,71.7,29.64,West,273,1.0,2.0,93,0.00,,SKC,0.01,VWS V14.01,2017-07-24 11:37:00,
2017-07-24 07:42:00,74.2,71.4,29.65,West,269,0.0,3.0,91,0.00,,SKC,0.01,VWS V14.01,2017-07-24 11:42:00,
2017-07-24 07:47:00,74.6,70.5,29.65,West,271,0.0,3.0,87,0.00,,SKC,0.01,VWS V14.01,2017-07-24 11:47:00,
2017-07-24 07:52:00,75.1,70.3,29.65,West,262,1.0,4.0,85,0.00,,SKC,0.01,VWS V14.01,2017-07-24 11:52:00,
2017-07-24 07:57:00,75.7,70.9,29.65,WSW,256,0.0,1.0,85,0.00,,SKC,0.01,VWS V14.01,2017-07-24 11:57:00,
2017-07-24 08:02:00,76.1,71.3,29.66,NNE,18,0.0,2.0,85,0.00,,SKC,0.01,VWS V14.01,2017-07-24 12:02:00,
2017-07-24 08:08:00,76.0,71.9,29.66,NNW,340,0.0,2.0,87,0.00,,SKC,0.01,VWS V14.01,2017-07-24 12:08:00,
2017-07-24 08:13:00,76.3,72.5,29.66,NNE,20,0.0,2.0,88,0.00,,SKC,0.01,VWS V14.01,2017-07-24 12:13:00,